createdAt,value
2018-11-25T00:01:42.997Z,20.50
2018-11-25T00:06:37.537Z,22.27
2018-11-25T00:11:32.075Z,19.77
2018-11-25T00:16:26.594Z,18.73
2018-11-25T00:21:21.070Z,21.53
2018-11-25T00:26:15.605Z,22.00
2018-11-25T00:31:10.147Z,18.67
2018-11-25T00:36:04.674Z,17.93
2018-11-25T00:40:59.257Z,18.73
2018-11-25T00:45:53.743Z,18.17
2018-11-25T00:50:48.342Z,19.60
2018-11-25T00:55:42.813Z,19.93
2018-11-25T01:00:37.369Z,18.50
2018-11-25T01:05:31.873Z,19.63
2018-11-25T01:10:26.337Z,18.70
2018-11-25T01:15:20.851Z,18.83
2018-11-25T01:20:20.901Z,18.13
2018-11-25T01:25:15.469Z,17.97
2018-11-25T01:30:14.621Z,19.43
2018-11-25T01:35:10.789Z,23.13
2018-11-25T01:40:10.991Z,28.77
2018-11-25T01:45:06.186Z,37.13
2018-11-25T01:50:00.724Z,36.53
2018-11-25T01:54:55.278Z,37.60
2018-11-25T01:59:49.779Z,30.37
2018-11-25T02:04:44.266Z,32.17
2018-11-25T02:09:38.720Z,28.30
2018-11-25T02:14:33.249Z,28.40
2018-11-25T02:19:27.753Z,27.83
2018-11-25T02:24:22.289Z,27.80
2018-11-25T02:29:16.865Z,26.87
2018-11-25T02:34:11.363Z,27.57
2018-11-25T02:39:09.285Z,24.73
2018-11-25T02:44:03.781Z,24.27
2018-11-25T02:48:58.229Z,22.20
2018-11-25T02:53:52.681Z,20.07
2018-11-25T02:58:47.137Z,20.43
2018-11-25T03:03:41.602Z,19.37
2018-11-25T03:08:36.062Z,22.03
2018-11-25T03:13:30.495Z,21.10
2018-11-25T03:18:24.952Z,21.50
2018-11-25T03:23:19.390Z,22.43
2018-11-25T03:28:13.868Z,22.57
2018-11-25T03:33:08.362Z,22.43
2018-11-25T03:38:02.814Z,21.03
2018-11-25T03:42:57.245Z,20.10
2018-11-25T03:47:51.731Z,21.73
2018-11-25T03:52:46.247Z,20.67
2018-11-25T03:57:40.729Z,21.83
2018-11-25T04:02:35.197Z,24.63
2018-11-25T04:07:29.792Z,24.80
2018-11-25T04:12:24.246Z,21.67
2018-11-25T04:17:18.717Z,21.60
2018-11-25T04:22:13.161Z,21.60
2018-11-25T04:27:07.822Z,22.57
2018-11-25T04:32:02.300Z,20.47
2018-11-25T04:36:56.762Z,21.63
2018-11-25T04:41:51.182Z,22.63
2018-11-25T04:46:45.693Z,22.47
2018-11-25T04:51:40.220Z,21.17
2018-11-25T04:56:34.686Z,22.13
2018-11-25T05:01:29.197Z,22.77
2018-11-25T05:06:23.738Z,22.27
2018-11-25T05:11:18.362Z,23.23
2018-11-25T05:16:12.831Z,23.27
2018-11-25T05:21:07.262Z,24.40
2018-11-25T05:26:01.728Z,22.40
2018-11-25T05:30:56.367Z,24.80
2018-11-25T05:35:50.917Z,26.30
2018-11-25T05:40:45.407Z,25.80
2018-11-25T05:45:39.865Z,26.27
2018-11-25T05:50:34.399Z,26.07
2018-11-25T05:55:28.858Z,25.37
2018-11-25T06:00:26.353Z,27.37
2018-11-25T06:05:20.813Z,27.47
2018-11-25T06:10:15.301Z,29.50
2018-11-25T06:15:12.468Z,29.03
2018-11-25T06:20:16.045Z,29.93
2018-11-25T06:25:14.468Z,29.20
2018-11-25T06:30:18.088Z,27.53
2018-11-25T06:35:13.961Z,27.53
2018-11-25T06:40:17.912Z,25.30
2018-11-25T06:45:42.973Z,24.57
2018-11-25T06:50:37.588Z,25.77
2018-11-25T06:55:32.257Z,26.57
2018-11-25T07:00:27.263Z,25.70
2018-11-25T07:05:21.813Z,24.33
2018-11-25T07:10:19.802Z,23.83
2018-11-25T07:15:16.169Z,24.10
2018-11-25T07:20:14.004Z,24.20
2018-11-25T07:25:21.759Z,24.50
2018-11-25T07:30:19.679Z,23.97
2018-11-25T07:35:15.149Z,23.97
2018-11-25T07:40:13.902Z,23.93
2018-11-25T07:45:12.321Z,25.40
2018-11-25T07:50:09.866Z,27.20
2018-11-25T07:55:04.761Z,28.20
2018-11-25T07:59:59.422Z,27.90
2018-11-25T08:04:54.130Z,25.07
2018-11-25T08:09:48.689Z,26.40
2018-11-25T08:14:43.316Z,26.77
2018-11-25T08:19:37.877Z,25.93
2018-11-25T08:24:32.438Z,23.83
2018-11-25T08:29:27.416Z,24.57
2018-11-25T08:34:22.095Z,23.87
2018-11-25T08:39:16.614Z,23.53
2018-11-25T08:44:11.315Z,22.63
2018-11-25T08:49:07.060Z,22.17
2018-11-25T08:54:01.528Z,22.07
2018-11-25T08:58:56.023Z,22.20
2018-11-25T09:03:50.643Z,21.20
2018-11-25T09:08:45.644Z,22.50
2018-11-25T09:13:40.188Z,20.70
2018-11-25T09:18:34.859Z,21.27
2018-11-25T09:23:29.371Z,19.67
2018-11-25T09:28:23.917Z,19.07
2018-11-25T09:33:18.465Z,19.03
2018-11-25T09:38:13.022Z,16.63
2018-11-25T09:43:07.504Z,16.97
2018-11-25T09:48:01.993Z,16.30
2018-11-25T09:52:56.513Z,16.33
2018-11-25T09:57:53.886Z,15.67
2018-11-25T10:02:48.409Z,14.60
2018-11-25T10:07:42.920Z,15.37
2018-11-25T10:12:37.592Z,15.40
2018-11-25T10:17:32.172Z,13.87
2018-11-25T10:22:26.897Z,16.00
2018-11-25T10:27:21.518Z,14.07
2018-11-25T10:32:16.034Z,14.30
2018-11-25T10:37:10.483Z,13.13
2018-11-25T10:42:05.487Z,13.27
2018-11-25T10:46:59.943Z,12.33
2018-11-25T10:51:54.489Z,12.60
2018-11-25T10:56:48.981Z,11.93
2018-11-25T11:01:54.702Z,10.80
2018-11-25T11:07:22.327Z,10.90
2018-11-25T11:12:16.829Z,10.40
2018-11-25T11:17:11.299Z,10.83
2018-11-25T11:22:05.968Z,9.83
2018-11-25T11:27:00.428Z,9.10
2018-11-25T11:31:54.937Z,9.37
2018-11-25T11:36:49.382Z,10.77
2018-11-25T11:41:43.865Z,10.33
2018-11-25T11:46:38.354Z,9.47
2018-11-25T11:51:32.868Z,9.20
2018-11-25T11:56:27.421Z,9.50
2018-11-25T12:01:21.914Z,9.43
2018-11-25T12:06:16.566Z,9.53
2018-11-25T12:11:11.142Z,10.30
2018-11-25T12:16:05.758Z,10.53
2018-11-25T12:21:00.274Z,10.37
2018-11-25T12:25:54.725Z,9.37
2018-11-25T12:30:49.364Z,9.70
2018-11-25T12:35:43.815Z,9.90
2018-11-25T12:40:38.318Z,10.50
2018-11-25T12:45:32.787Z,9.70
2018-11-25T12:50:27.894Z,10.83
2018-11-25T12:55:24.447Z,9.47
2018-11-25T13:00:26.662Z,9.80
2018-11-25T13:05:21.139Z,10.37
2018-11-25T13:10:15.667Z,9.67
2018-11-25T13:15:10.465Z,10.10
2018-11-25T13:20:06.662Z,10.20
2018-11-25T13:25:01.604Z,9.90
2018-11-25T13:29:55.653Z,9.93
2018-11-25T13:34:50.154Z,9.50
2018-11-25T13:39:44.609Z,9.00
2018-11-25T13:44:44.149Z,9.23
2018-11-25T13:49:38.613Z,9.20
2018-11-25T13:54:33.059Z,9.73
2018-11-25T13:59:27.539Z,9.23
2018-11-25T14:04:21.996Z,8.90
2018-11-25T14:09:17.072Z,5.87
2018-11-25T14:14:11.516Z,6.23
2018-11-25T14:19:06.625Z,6.30
2018-11-25T14:24:01.122Z,6.23
2018-11-25T14:28:55.574Z,5.40
2018-11-25T14:33:50.092Z,6.13
2018-11-25T14:38:45.285Z,6.23
2018-11-25T14:43:39.123Z,6.17
2018-11-25T14:48:33.589Z,6.90
2018-11-25T14:53:28.043Z,7.47
2018-11-25T14:58:22.511Z,6.53
2018-11-25T15:03:17.097Z,7.10
2018-11-25T15:08:14.329Z,7.10
2018-11-25T15:13:09.415Z,7.50
2018-11-25T15:18:04.185Z,7.97
2018-11-25T15:23:03.606Z,8.00
2018-11-25T15:27:58.426Z,7.10
2018-11-25T15:32:53.074Z,7.50
2018-11-25T15:37:49.706Z,7.47
2018-11-25T15:42:44.366Z,7.97
2018-11-25T15:47:39.948Z,7.83
2018-11-25T15:52:34.468Z,8.43
2018-11-25T15:57:29.069Z,8.20
2018-11-25T16:02:23.696Z,8.03
2018-11-25T16:07:18.330Z,8.83
2018-11-25T16:12:12.941Z,9.07
2018-11-25T16:17:07.482Z,8.77
2018-11-25T16:22:02.085Z,8.90
2018-11-25T16:26:56.547Z,8.63
2018-11-25T16:31:51.211Z,8.70
2018-11-25T16:36:45.786Z,8.50
2018-11-25T16:41:40.964Z,8.97
2018-11-25T16:46:35.558Z,9.30
2018-11-25T16:51:30.089Z,9.17
2018-11-25T16:56:24.589Z,9.33
2018-11-25T17:01:19.229Z,9.33
2018-11-25T17:06:14.457Z,9.47
2018-11-25T17:11:09.527Z,9.33
2018-11-25T17:16:04.197Z,8.73
2018-11-25T17:20:58.962Z,8.93
2018-11-25T17:25:53.795Z,9.07
2018-11-25T17:30:48.501Z,8.60
2018-11-25T17:35:43.117Z,8.73
2018-11-25T17:40:38.184Z,9.87
2018-11-25T17:45:32.690Z,9.60
2018-11-25T17:50:30.070Z,8.90
2018-11-25T17:55:27.008Z,9.00
2018-11-25T18:00:34.442Z,10.23
2018-11-25T18:05:29.045Z,9.73
2018-11-25T18:10:23.545Z,9.43
2018-11-25T18:15:21.115Z,8.90
2018-11-25T18:20:15.693Z,8.13
2018-11-25T18:25:10.247Z,9.33
2018-11-25T18:30:05.655Z,8.50
2018-11-25T18:35:00.224Z,8.33
2018-11-25T18:39:54.770Z,7.60
2018-11-25T18:44:49.315Z,8.47
2018-11-25T18:49:43.834Z,8.10
2018-11-25T18:54:46.453Z,7.70
2018-11-25T18:59:41.073Z,8.50
2018-11-25T19:04:35.681Z,7.77
2018-11-25T19:09:30.254Z,8.17
2018-11-25T19:14:24.824Z,8.00
2018-11-25T19:19:19.341Z,9.63
2018-11-25T19:24:13.909Z,7.63
2018-11-25T19:29:08.525Z,7.43
2018-11-25T19:34:03.010Z,7.57
2018-11-25T19:38:57.606Z,7.33
2018-11-25T19:43:52.173Z,7.43
2018-11-25T19:48:46.765Z,7.20
2018-11-25T19:53:41.291Z,6.80
2018-11-25T19:58:35.773Z,6.77
2018-11-25T20:03:30.293Z,7.00
2018-11-25T20:08:24.778Z,6.37
2018-11-25T20:13:19.382Z,7.40
2018-11-25T20:18:13.860Z,7.97
2018-11-25T20:23:08.569Z,7.53
2018-11-25T20:28:03.162Z,6.93
2018-11-25T20:33:02.929Z,6.53
2018-11-25T20:38:02.541Z,6.30
2018-11-25T20:42:57.201Z,6.57
2018-11-25T20:47:51.838Z,6.53
2018-11-25T20:52:51.581Z,6.57
2018-11-25T20:57:46.113Z,7.00
2018-11-25T21:02:40.586Z,7.50
2018-11-25T21:07:35.105Z,7.67
2018-11-25T21:12:29.658Z,7.87
2018-11-25T21:17:24.139Z,7.97
2018-11-25T21:22:18.660Z,7.00
2018-11-25T21:27:13.137Z,8.07
2018-11-25T21:32:07.650Z,8.80
2018-11-25T21:37:02.140Z,7.83
2018-11-25T21:41:56.694Z,8.30
2018-11-25T21:46:51.166Z,8.30
2018-11-25T21:51:45.654Z,8.43
2018-11-25T21:56:40.110Z,8.27
2018-11-25T22:01:34.643Z,8.60
2018-11-25T22:06:29.091Z,8.70
2018-11-25T22:11:23.514Z,9.00
2018-11-25T22:16:18.000Z,8.53
2018-11-25T22:21:12.493Z,8.97
2018-11-25T22:26:07.320Z,8.97
2018-11-25T22:31:01.824Z,8.53
2018-11-25T22:35:56.305Z,8.00
2018-11-25T22:40:50.733Z,8.87
2018-11-25T22:45:45.250Z,9.03
2018-11-25T22:50:39.769Z,8.60
2018-11-25T22:55:34.240Z,8.40
2018-11-25T23:00:33.020Z,8.50
2018-11-25T23:05:44.281Z,8.40
2018-11-25T23:10:38.834Z,8.63
2018-11-25T23:15:33.458Z,8.93
2018-11-25T23:20:27.964Z,8.60
2018-11-25T23:25:22.408Z,8.30
2018-11-25T23:30:16.898Z,8.87
2018-11-25T23:35:25.143Z,8.40
2018-11-25T23:40:19.697Z,8.17
2018-11-25T23:45:15.703Z,8.23
2018-11-25T23:50:12.961Z,8.73
2018-11-25T23:55:10.737Z,8.40
